Time;durP1;ratioP1;P1;durP2;ratioP2;P2;SDS_P1;SDS_P2;PMS_P1;PMS_P2;Temp;Humidity;BMP_temperature;BMP_pressure;BME280_temperature;BME280_humidity;BME280_pressure;Samples;Min_cycle;Max_cycle;Signal;HPM_P1;HPM_P2
2022/05/30 07:33:58;;;;;;;6.15;1.92;;;;;;;16.06;54.99;98496.09;5111256;27;1437943;-86
2022/05/30 07:36:28;;;;;;;5.80;2.10;;;;;;;16.13;57.75;98504.19;5171156;27;20534;-86
2022/05/30 07:38:55;;;;;;;7.13;2.95;;;;;;;16.23;54.15;98484.41;5167235;27;20082;-86
2022/05/30 07:41:24;;;;;;;5.55;1.88;;;;;;;16.02;53.58;98502.28;5154691;27;20470;-86
2022/05/30 07:43:52;;;;;;;4.40;2.03;;;;;;;15.69;55.15;98503.63;5149464;27;20517;-86
2022/05/30 07:46:21;;;;;;;5.40;1.92;;;;;;;16.16;55.43;98505.63;5150629;27;20047;-87
2022/05/30 07:48:48;;;;;;;8.32;1.90;;;;;;;16.22;52.56;98496.44;5168037;27;20399;-85
2022/05/30 07:51:17;;;;;;;2.85;1.50;;;;;;;16.01;52.72;98493.22;5172494;27;20054;-86
2022/05/30 07:53:45;;;;;;;4.27;1.87;;;;;;;15.77;54.87;98486.81;5182432;27;20044;-86
2022/05/30 07:56:16;;;;;;;3.05;1.85;;;;;;;16.24;55.82;98481.44;5184553;27;20035;-85
2022/05/30 07:58:43;;;;;;;5.15;1.50;;;;;;;16.36;54.38;98508.00;5195882;27;20055;-87
2022/05/30 08:01:14;;;;;;;3.15;1.65;;;;;;;16.27;54.24;98488.34;5193812;27;20042;-86
2022/05/30 08:03:43;;;;;;;6.13;1.92;;;;;;;15.83;54.64;98487.81;5172976;27;20035;-87
2022/05/30 08:06:13;;;;;;;5.60;2.92;;;;;;;16.62;52.83;98496.56;5171012;27;20074;-87
2022/05/30 08:49:13;;;;;;;4.43;1.52;;;;;;;16.64;49.61;98477.91;5156975;27;20054;-88
2022/05/30 08:52:06;;;;;;;8.07;2.00;;;;;;;16.52;49.35;98496.31;5168130;27;20102;-89
2022/05/30 08:55:21;;;;;;;2.58;1.60;;;;;;;16.74;48.84;98473.72;5171844;27;20072;-89
2022/05/30 08:57:57;;;;;;;3.63;2.25;;;;;;;17.05;47.64;98475.22;5171949;27;20050;-88
2022/05/30 09:00:30;;;;;;;2.60;1.63;;;;;;;16.86;46.95;98481.94;5158967;27;20511;-84
2022/05/30 09:03:06;;;;;;;5.82;1.75;;;;;;;16.94;48.50;98478.84;5153911;27;20042;-85
2022/05/30 09:05:38;;;;;;;2.70;1.35;;;;;;;16.92;44.45;98470.88;5163705;27;20505;-85
2022/05/30 09:08:09;;;;;;;5.28;1.42;;;;;;;16.83;44.17;98475.03;5158157;27;20066;-86
2022/05/30 09:10:43;;;;;;;3.90;1.40;;;;;;;16.97;47.40;98473.69;5158474;27;20042;-86
2022/05/30 09:13:20;;;;;;;7.70;1.70;;;;;;;17.42;44.04;98482.22;5156718;27;20154;-87
2022/05/30 09:15:53;;;;;;;2.13;1.20;;;;;;;17.71;44.56;98483.06;5166743;27;20072;-88
2022/05/30 09:21:08;;;;;;;6.43;1.95;;;;;;;18.04;45.38;98465.75;5156272;27;20091;-86
2022/05/30 09:23:37;;;;;;;4.93;1.52;;;;;;;18.12;43.02;98481.00;5115724;22;20552;-88
2022/05/30 09:26:07;;;;;;;3.97;1.80;;;;;;;17.77;44.06;98460.06;5095747;28;20052;-85
2022/05/30 09:28:36;;;;;;;2.88;1.50;;;;;;;17.49;44.47;98474.69;5122094;27;20622;-86
2022/05/30 09:31:13;;;;;;;2.50;1.45;;;;;;;16.95;43.94;98453.91;5131903;27;20569;-87
2022/05/30 09:33:42;;;;;;;5.22;1.60;;;;;;;17.15;45.42;98456.22;5120843;27;20130;-87
2022/05/30 09:36:20;;;;;;;2.78;1.30;;;;;;;17.09;45.39;98459.94;5120796;27;20049;-88
2022/05/30 09:38:49;;;;;;;4.05;1.67;;;;;;;17.04;42.21;98451.63;5124766;27;20047;-87
2022/05/30 09:41:22;;;;;;;4.53;1.60;;;;;;;17.40;40.96;98452.25;5116448;27;20040;-88
2022/05/30 09:44:03;;;;;;;4.82;1.90;;;;;;;18.29;42.40;98470.00;5122518;27;20457;-87
2022/05/30 09:46:37;;;;;;;4.97;2.25;;;;;;;17.84;42.57;98443.41;5123105;27;20463;-85
2022/05/30 09:49:10;;;;;;;3.45;1.63;;;;;;;17.92;43.42;98453.19;5128205;27;20043;-87
2022/05/30 09:51:41;;;;;;;3.67;1.73;;;;;;;18.36;42.89;98465.13;5125016;27;20047;-86
2022/05/30 09:54:11;;;;;;;9.15;2.28;;;;;;;18.80;40.12;98447.00;5130382;27;20112;-86
2022/05/30 09:56:44;;;;;;;5.05;1.90;;;;;;;18.62;40.56;98486.69;5121105;27;20051;-83
2022/05/30 09:59:32;;;;;;;4.28;1.35;;;;;;;17.55;40.24;98484.69;5125731;27;20138;-86
2022/05/30 10:02:02;;;;;;;4.03;1.65;;;;;;;17.77;42.05;98481.22;5133014;27;20046;-86
2022/05/30 10:17:40;;;;;;;1.80;1.25;;;;;;;17.33;40.84;98479.91;5134450;27;20127;-86
2022/05/30 10:20:14;;;;;;;5.43;1.65;;;;;;;17.66;38.86;98467.31;5134963;27;20082;-86
2022/05/30 10:28:49;;;;;;;4.20;1.55;;;;;;;18.73;37.58;98472.81;5068194;28;20040;-86
2022/05/30 11:05:30;;;;;;;2.63;1.50;;;;;;;20.19;34.35;98482.38;5112602;28;20096;-86
2022/05/30 11:08:05;;;;;;;4.50;2.40;;;;;;;20.13;33.98;98461.34;5112266;28;20476;-87
2022/05/30 11:10:47;;;;;;;5.55;1.38;;;;;;;20.10;35.62;98500.50;5123985;27;20134;-82
2022/05/30 11:13:41;;;;;;;3.03;1.48;;;;;;;20.29;37.27;98482.44;5111202;28;20105;-83
2022/05/30 11:16:19;;;;;;;2.55;1.40;;;;;;;20.24;35.24;98470.53;5118609;27;20272;-83
2022/05/30 11:18:54;;;;;;;4.68;1.45;;;;;;;20.61;33.70;98489.81;5131426;27;20395;-84
2022/05/30 11:21:31;;;;;;;3.67;1.73;;;;;;;20.66;35.10;98478.00;5132532;28;20410;-84
2022/05/30 11:24:04;;;;;;;4.47;1.70;;;;;;;19.69;34.57;98467.00;5131340;28;20208;-85
2022/05/30 11:26:54;;;;;;;2.70;1.70;;;;;;;19.22;36.80;98498.78;5121832;27;20448;-88
2022/05/30 11:29:40;;;;;;;3.55;1.63;;;;;;;18.65;38.72;98491.69;5122036;28;20125;-87
2022/05/30 11:32:18;;;;;;;3.03;1.30;;;;;;;18.66;38.49;98474.09;5111486;28;20043;-87
2022/05/30 11:34:59;;;;;;;5.70;1.40;;;;;;;19.00;36.45;98480.34;5111917;28;20044;-89
2022/05/30 11:37:50;;;;;;;7.00;1.17;;;;;;;18.70;37.43;98498.09;5115148;28;20396;-87
2022/05/30 11:40:25;;;;;;;1.90;1.10;;;;;;;18.65;38.16;98498.03;5120812;28;20048;-87
2022/05/30 11:43:06;;;;;;;6.28;1.48;;;;;;;17.94;36.26;98471.09;5126174;28;20466;-85
2022/05/30 11:45:51;;;;;;;3.13;1.30;;;;;;;17.63;39.18;98506.28;5116885;28;20051;-87
2022/05/30 11:48:25;;;;;;;1.80;1.50;;;;;;;17.39;38.43;98505.56;5123367;28;20126;-88
2022/05/30 11:50:58;;;;;;;2.10;1.40;;;;;;;17.98;38.06;98509.94;5132294;28;20104;-88
2022/05/30 11:53:43;;;;;;;5.40;1.40;;;;;;;17.86;38.27;98482.47;5131987;28;20047;-88
2022/05/30 11:56:21;;;;;;;3.10;1.35;;;;;;;18.39;37.80;98458.31;5132995;28;20081;-89
2022/05/30 11:59:07;;;;;;;1.70;1.30;;;;;;;19.27;34.92;98494.16;5132306;28;20047;-88
2022/05/30 12:01:37;;;;;;;4.60;1.27;;;;;;;19.74;34.03;98481.69;5120335;28;20047;-88
2022/05/30 12:04:29;;;;;;;2.60;1.05;;;;;;;20.49;35.10;98465.19;5124782;28;20045;-88
2022/05/30 12:33:51;;;;;;;5.30;1.30;;;;;;;18.81;31.36;98489.97;5133308;27;20042;-87
2022/05/30 12:36:36;;;;;;;3.58;0.90;;;;;;;18.76;30.82;98485.25;5118934;27;20047;-88
2022/05/30 12:39:25;;;;;;;1.35;0.93;;;;;;;18.65;30.94;98487.03;5135994;27;20193;-88
2022/05/30 12:41:57;;;;;;;1.77;0.75;;;;;;;18.54;32.17;98498.97;5128614;27;20128;-87
2022/05/30 12:44:25;;;;;;;4.72;0.90;;;;;;;19.09;31.45;98484.31;5114904;28;20047;-87
2022/05/30 12:46:55;;;;;;;1.15;0.77;;;;;;;19.88;29.93;98476.59;5115242;28;20432;-88
2022/05/30 12:49:34;;;;;;;3.22;1.17;;;;;;;20.47;28.55;98474.81;5115213;28;20051;-88
2022/05/30 12:52:04;;;;;;;3.47;1.00;;;;;;;20.82;30.38;98490.81;5114603;28;20533;-88
2022/05/30 12:55:08;;;;;;;1.40;0.73;;;;;;;21.15;27.14;98497.03;5116020;27;20071;-85
2022/05/30 12:57:38;;;;;;;1.45;0.82;;;;;;;21.55;28.89;98500.22;5050293;28;20052;-86
2022/05/30 13:00:14;;;;;;;3.65;0.93;;;;;;;21.70;30.49;98494.69;5110763;27;20050;-84
2022/05/30 13:03:04;;;;;;;2.92;0.82;;;;;;;22.13;27.60;98493.63;5113542;27;20566;-86
2022/05/30 13:05:44;;;;;;;;;;;;;;;22.45;25.89;98496.13;5129175;27;20043;-87
2022/05/30 13:09:03;;;;;;;0.80;0.60;;;;;;;22.28;26.55;98496.38;5129838;27;20018;-87
2022/05/30 13:12:17;;;;;;;1.40;0.65;;;;;;;22.38;25.63;98481.72;5048343;28;20147;-87
2022/05/30 13:15:19;;;;;;;2.38;1.10;;;;;;;22.39;27.70;98475.09;5121662;27;20051;-86
2022/05/30 13:17:53;;;;;;;1.88;0.80;;;;;;;22.44;25.37;98486.97;5124513;27;20047;-87
2022/05/30 13:20:22;;;;;;;1.13;0.73;;;;;;;22.61;25.08;98483.06;5130128;27;20062;-86
2022/05/30 13:22:54;;;;;;;3.45;0.82;;;;;;;22.55;24.85;98501.66;5124944;27;20324;-87
2022/05/30 13:25:24;;;;;;;1.75;0.70;;;;;;;23.05;24.24;98501.78;5123530;27;20130;-86
2022/05/30 13:27:50;;;;;;;;;;;;;;;23.31;25.60;98496.97;5128143;27;20120;-87
2022/05/30 13:30:21;;;;;;;4.20;1.17;;;;;;;23.43;25.26;98470.84;5127199;27;20378;-87
2022/05/30 13:32:50;;;;;;;2.65;1.00;;;;;;;22.21;24.80;98496.66;5115503;27;20046;-85
2022/05/30 13:35:18;;;;;;;1.42;0.70;;;;;;;22.53;27.01;98472.56;5121949;27;20492;-87
2022/05/30 13:37:49;;;;;;;1.13;0.90;;;;;;;22.48;25.82;98500.25;5117684;27;20043;-86
2022/05/30 13:40:24;;;;;;;1.30;0.82;;;;;;;22.63;26.88;98503.84;5122426;27;20052;-87
2022/05/30 13:42:53;;;;;;;4.43;1.05;;;;;;;22.40;25.61;98499.75;5125936;27;20078;-87
2022/05/30 13:45:22;;;;;;;1.77;1.00;;;;;;;22.33;26.87;98501.13;5120886;27;20100;-87
2022/05/30 13:47:49;;;;;;;4.30;0.80;;;;;;;21.62;26.25;98495.25;5125965;27;20402;-87
2022/05/30 13:50:19;;;;;;;1.50;0.93;;;;;;;21.10;26.86;98485.94;5132589;27;20206;-87
2022/05/30 13:52:47;;;;;;;5.40;0.90;;;;;;;20.84;27.12;98496.88;5124381;27;20044;-87
2022/05/30 13:55:23;;;;;;;4.13;1.33;;;;;;;20.28;27.11;98488.25;5126127;27;20046;-86
2022/05/30 13:57:51;;;;;;;1.85;0.90;;;;;;;21.10;27.52;98485.94;5144712;27;20022;-87
2022/05/30 14:00:24;;;;;;;3.22;1.00;;;;;;;20.91;27.06;98477.31;5148268;27;20102;-87
2022/05/30 14:02:51;;;;;;;3.20;1.10;;;;;;;20.64;27.39;98496.72;5150461;27;20034;-87
2022/05/30 14:05:33;;;;;;;1.40;0.93;;;;;;;19.69;28.46;98500.94;5128244;27;20063;-85
2022/05/30 14:08:03;;;;;;;1.17;0.90;;;;;;;19.86;29.56;98477.94;5119763;27;20039;-84
2022/05/30 14:10:32;;;;;;;1.88;1.10;;;;;;;20.04;29.76;98468.44;5120863;27;20135;-86
2022/05/30 14:12:58;;;;;;;1.00;0.90;;;;;;;20.29;30.06;98496.25;5123525;27;20463;-86
2022/05/30 14:15:27;;;;;;;4.82;0.80;;;;;;;19.68;29.89;98502.03;5118581;27;20138;-87
2022/05/30 14:17:55;;;;;;;1.88;1.13;;;;;;;19.78;30.42;98480.09;5118478;27;20044;-87
2022/05/30 14:20:32;;;;;;;2.33;0.90;;;;;;;20.35;29.04;98488.81;5118554;27;20043;-86
2022/05/30 14:23:06;;;;;;;0.90;0.82;;;;;;;21.00;29.13;98485.88;5120429;27;20047;-86
2022/05/30 14:25:37;;;;;;;1.15;0.80;;;;;;;21.20;27.70;98480.44;5116402;27;20101;-87
2022/05/30 14:28:11;;;;;;;0.88;0.80;;;;;;;21.41;27.39;98455.63;5124469;27;20089;-87
2022/05/30 14:30:38;;;;;;;3.28;1.42;;;;;;;21.49;27.15;98452.31;5129153;27;20070;-86
2022/05/30 14:33:11;;;;;;;2.47;1.08;;;;;;;21.69;26.77;98470.94;5115011;27;20114;-87
2022/05/30 14:35:40;;;;;;;2.58;1.10;;;;;;;21.90;26.61;98455.16;5122681;27;20050;-87
2022/05/30 14:38:09;;;;;;;0.73;0.68;;;;;;;21.70;26.93;98458.75;5125257;27;20406;-86
2022/05/30 14:40:43;;;;;;;4.50;0.68;;;;;;;22.00;26.61;98470.94;5122309;27;20048;-86
2022/05/30 14:43:25;;;;;;;1.63;1.00;;;;;;;21.00;25.81;98458.25;5116805;27;20475;-86
2022/05/30 14:46:05;;;;;;;2.35;0.80;;;;;;;20.90;26.23;98461.00;5121078;27;20054;-82
2022/05/30 14:48:32;;;;;;;2.13;1.00;;;;;;;21.29;27.13;98464.19;5125033;27;20043;-86
2022/05/30 14:51:03;;;;;;;1.05;0.70;;;;;;;21.55;25.20;98475.31;5121441;27;20054;-84
2022/05/30 14:53:32;;;;;;;1.48;0.80;;;;;;;21.94;26.47;98483.09;5119137;27;20043;-86
2022/05/30 14:56:04;;;;;;;3.78;0.93;;;;;;;21.49;25.45;98482.72;5119771;27;20058;-86
2022/05/30 14:58:39;;;;;;;1.90;1.10;;;;;;;21.79;24.24;98467.31;5128166;27;20581;-86
2022/05/30 15:01:07;;;;;;;4.38;1.20;;;;;;;22.30;24.43;98477.56;5122613;27;20058;-86
2022/05/30 15:06:22;;;;;;;3.78;1.27;;;;;;;21.68;25.36;98472.03;5116927;27;20146;-85
2022/05/30 15:08:50;;;;;;;1.90;0.85;;;;;;;21.74;24.42;98481.16;5122484;27;20043;-87
2022/05/30 15:11:24;;;;;;;1.10;0.80;;;;;;;21.58;23.74;98463.72;5126904;27;20147;-82
2022/05/30 15:13:55;;;;;;;1.92;0.93;;;;;;;21.69;24.16;98470.06;5123794;27;20131;-87
2022/05/30 15:16:26;;;;;;;1.63;0.90;;;;;;;21.71;24.28;98465.94;5121412;27;20059;-86
2022/05/30 15:18:53;;;;;;;1.17;1.00;;;;;;;22.16;23.56;98460.69;5130874;27;20054;-88
2022/05/30 15:21:27;;;;;;;4.07;0.90;;;;;;;21.66;23.81;98474.22;5121496;27;20056;-90
2022/05/30 15:23:54;;;;;;;6.07;0.80;;;;;;;21.27;24.69;98480.19;5116467;28;20047;-88
2022/05/30 15:26:25;;;;;;;0.90;0.75;;;;;;;21.21;25.25;98472.97;5122376;28;20047;-89
2022/05/30 15:28:52;;;;;;;3.78;0.88;;;;;;;21.60;24.94;98493.84;5132451;28;20043;-86
2022/05/30 15:31:27;;;;;;;3.47;0.93;;;;;;;21.74;24.10;98484.75;5133108;28;20134;-88
2022/05/30 15:33:55;;;;;;;2.63;0.70;;;;;;;21.70;24.11;98493.88;5122866;28;20039;-88
2022/05/30 15:36:22;;;;;;;3.50;1.00;;;;;;;21.67;23.79;98492.47;5112787;28;20058;-88
2022/05/30 15:38:50;;;;;;;3.67;1.10;;;;;;;21.12;24.82;98469.94;5117015;28;20089;-88
2022/05/30 15:41:18;;;;;;;1.67;0.77;;;;;;;20.89;25.73;98473.16;5112656;27;20047;-88
2022/05/30 15:43:46;;;;;;;2.78;0.85;;;;;;;20.99;25.77;98487.00;5128732;27;20531;-88
2022/05/30 15:46:16;;;;;;;1.63;1.00;;;;;;;21.35;24.87;98489.91;5132199;27;20139;-88
2022/05/30 15:48:44;;;;;;;2.88;1.02;;;;;;;21.34;24.44;98466.94;5124606;27;20134;-88
2022/05/30 15:51:13;;;;;;;0.82;0.73;;;;;;;21.72;24.24;98478.69;5116268;28;20059;-88
2022/05/30 15:59:15;;;;;;;1.05;0.68;;;;;;;21.86;24.56;98465.13;5135432;27;20168;-89
2022/05/30 16:25:18;;;;;;;1.58;1.02;;;;;;;21.27;26.62;98462.78;5133955;27;20054;-89
2022/05/30 16:27:48;;;;;;;4.75;0.95;;;;;;;21.31;24.49;98474.97;5128016;27;20047;-88
2022/05/30 16:40:25;;;;;;;2.15;0.80;;;;;;;21.08;25.64;98484.56;5131291;27;20046;-88
2022/05/30 16:42:52;;;;;;;2.25;0.95;;;;;;;20.74;25.82;98463.69;5123195;27;20055;-88
2022/05/30 16:45:21;;;;;;;1.50;0.90;;;;;;;20.76;26.59;98489.13;5116556;27;20039;-88
2022/05/30 16:47:49;;;;;;;1.15;0.73;;;;;;;20.20;26.61;98463.88;5129054;27;20447;-87
2022/05/30 16:50:21;;;;;;;4.00;1.00;;;;;;;20.01;27.72;98480.84;5126984;27;20051;-87
2022/05/30 16:52:48;;;;;;;3.75;1.15;;;;;;;19.55;28.03;98502.44;5135969;27;20043;-88
2022/05/30 16:55:15;;;;;;;2.90;0.80;;;;;;;19.35;28.26;98505.81;5120136;27;20062;-86
2022/05/30 16:57:44;;;;;;;2.78;0.80;;;;;;;19.05;28.65;98482.34;5131097;27;20104;-88
2022/05/30 17:33:50;;;;;;;1.02;0.70;;;;;;;18.58;32.40;98509.22;5121171;28;20123;-88
2022/05/30 17:36:18;;;;;;;2.50;1.00;;;;;;;18.54;32.56;98519.06;5123787;27;20048;-88
2022/05/30 17:38:46;;;;;;;1.90;1.20;;;;;;;18.45;33.08;98503.25;5124720;27;20039;-88
2022/05/30 17:41:13;;;;;;;1.45;1.15;;;;;;;18.42;32.94;98518.34;5118750;27;20112;-89
2022/05/30 17:43:40;;;;;;;2.60;0.90;;;;;;;18.07;33.56;98491.13;5123859;27;20075;-89
2022/05/30 17:46:19;;;;;;;1.27;0.80;;;;;;;18.02;33.96;98495.44;5117429;28;20048;-88
2022/05/30 17:48:55;;;;;;;2.70;0.93;;;;;;;17.80;34.53;98500.81;5127241;27;20066;-85
2022/05/30 17:51:32;;;;;;;1.05;0.85;;;;;;;17.78;35.35;98513.13;5129287;27;20543;-88
2022/05/30 17:53:59;;;;;;;2.70;1.20;;;;;;;17.74;35.45;98526.53;5136665;27;20104;-87
2022/05/30 17:56:29;;;;;;;1.63;0.88;;;;;;;17.29;35.76;98497.94;5123407;27;20048;-88
2022/05/30 17:58:56;;;;;;;;;;;;;;;17.43;35.70;98519.63;5123716;27;20403;-88
2022/05/30 18:01:23;;;;;;;3.70;1.20;;;;;;;17.23;36.37;98501.66;5128845;27;19931;-89
2022/05/30 18:03:52;;;;;;;1.65;1.08;;;;;;;17.38;37.08;98519.53;5145054;27;20035;-89
2022/05/30 18:06:23;;;;;;;3.33;1.00;;;;;;;17.40;36.58;98526.44;5147533;27;20087;-89
2022/05/30 18:09:00;;;;;;;3.13;1.13;;;;;;;17.25;37.05;98516.00;5158756;27;20031;-88
2022/05/30 18:11:41;;;;;;;4.65;1.42;;;;;;;17.06;37.31;98520.00;5142880;27;20380;-88
2022/05/30 18:14:22;;;;;;;2.10;0.65;;;;;;;16.92;37.65;98513.94;5141402;27;20043;-88
2022/05/30 18:16:51;;;;;;;5.82;1.05;;;;;;;16.78;38.14;98532.56;5134643;27;20048;-89
2022/05/30 18:22:14;;;;;;;1.88;1.00;;;;;;;16.66;39.20;98518.84;5145470;27;20375;-88
2022/05/30 18:24:51;;;;;;;1.80;1.10;;;;;;;16.66;39.40;98523.50;5131845;27;20043;-89
2022/05/30 18:27:21;;;;;;;1.65;1.05;;;;;;;16.54;38.97;98524.34;5134055;27;20381;-88
2022/05/30 18:29:50;;;;;;;1.48;0.95;;;;;;;16.64;39.69;98535.56;5119810;27;20486;-89
